sensor_id;sensor_type;location;lat;lon;timestamp;temperature;humidity
67901;DHT22;54700;51.796;10.956;2023-06-19T00:00:54;20.30;52.10
67901;DHT22;54700;51.796;10.956;2023-06-19T00:03:21;20.30;51.90
67901;DHT22;54700;51.796;10.956;2023-06-19T00:05:48;20.30;52.50
67901;DHT22;54700;51.796;10.956;2023-06-19T00:08:16;20.30;52.60
67901;DHT22;54700;51.796;10.956;2023-06-19T00:10:43;20.30;52.60
67901;DHT22;54700;51.796;10.956;2023-06-19T00:13:09;20.20;52.80
67901;DHT22;54700;51.796;10.956;2023-06-19T00:15:36;20.20;53.50
67901;DHT22;54700;51.796;10.956;2023-06-19T00:18:03;20.20;53.50
67901;DHT22;54700;51.796;10.956;2023-06-19T00:20:32;20.20;54.00
67901;DHT22;54700;51.796;10.956;2023-06-19T00:22:59;20.20;52.00
67901;DHT22;54700;51.796;10.956;2023-06-19T00:25:28;20.10;51.00
67901;DHT22;54700;51.796;10.956;2023-06-19T00:27:54;20.10;50.90
67901;DHT22;54700;51.796;10.956;2023-06-19T00:30:21;20.10;50.70
67901;DHT22;54700;51.796;10.956;2023-06-19T00:32:48;20.10;50.40
67901;DHT22;54700;51.796;10.956;2023-06-19T00:35:18;20.10;50.30
67901;DHT22;54700;51.796;10.956;2023-06-19T00:37:46;20.10;50.10
67901;DHT22;54700;51.796;10.956;2023-06-19T00:40:18;20.10;49.70
67901;DHT22;54700;51.796;10.956;2023-06-19T00:42:52;20.10;49.60
67901;DHT22;54700;51.796;10.956;2023-06-19T00:45:22;20.10;50.00
67901;DHT22;54700;51.796;10.956;2023-06-19T00:47:51;20.10;49.80
67901;DHT22;54700;51.796;10.956;2023-06-19T00:50:18;20.10;49.70
67901;DHT22;54700;51.796;10.956;2023-06-19T00:52:46;20.10;50.00
67901;DHT22;54700;51.796;10.956;2023-06-19T00:55:14;20.10;50.00
67901;DHT22;54700;51.796;10.956;2023-06-19T00:57:42;20.10;50.10
67901;DHT22;54700;51.796;10.956;2023-06-19T01:00:13;20.10;50.30
67901;DHT22;54700;51.796;10.956;2023-06-19T01:02:40;20.10;50.40
67901;DHT22;54700;51.796;10.956;2023-06-19T01:05:07;20.10;50.50
67901;DHT22;54700;51.796;10.956;2023-06-19T01:07:40;20.10;50.80
67901;DHT22;54700;51.796;10.956;2023-06-19T01:10:16;20.10;50.90
67901;DHT22;54700;51.796;10.956;2023-06-19T01:12:48;20.10;50.90
67901;DHT22;54700;51.796;10.956;2023-06-19T01:15:24;20.10;51.00
67901;DHT22;54700;51.796;10.956;2023-06-19T01:17:51;20.10;51.10
67901;DHT22;54700;51.796;10.956;2023-06-19T01:20:18;20.00;51.20
67901;DHT22;54700;51.796;10.956;2023-06-19T01:22:47;20.00;51.10
67901;DHT22;54700;51.796;10.956;2023-06-19T01:25:14;20.00;51.30
67901;DHT22;54700;51.796;10.956;2023-06-19T01:27:41;20.00;51.60
67901;DHT22;54700;51.796;10.956;2023-06-19T01:30:08;19.90;51.60
67901;DHT22;54700;51.796;10.956;2023-06-19T01:32:40;19.90;51.80
67901;DHT22;54700;51.796;10.956;2023-06-19T01:35:13;19.80;52.60
67901;DHT22;54700;51.796;10.956;2023-06-19T01:37:43;19.70;52.70
67901;DHT22;54700;51.796;10.956;2023-06-19T01:40:14;19.70;53.10
67901;DHT22;54700;51.796;10.956;2023-06-19T01:42:42;19.60;53.10
67901;DHT22;54700;51.796;10.956;2023-06-19T01:45:09;19.60;53.00
67901;DHT22;54700;51.796;10.956;2023-06-19T01:47:36;19.60;53.00
67901;DHT22;54700;51.796;10.956;2023-06-19T01:50:04;19.70;52.80
67901;DHT22;54700;51.796;10.956;2023-06-19T01:52:31;19.70;52.80
67901;DHT22;54700;51.796;10.956;2023-06-19T01:54:58;19.70;52.70
67901;DHT22;54700;51.796;10.956;2023-06-19T01:57:26;19.70;52.60
67901;DHT22;54700;51.796;10.956;2023-06-19T01:59:53;19.70;53.00
67901;DHT22;54700;51.796;10.956;2023-06-19T02:02:20;19.70;52.70
67901;DHT22;54700;51.796;10.956;2023-06-19T02:04:47;19.70;52.80
67901;DHT22;54700;51.796;10.956;2023-06-19T02:07:14;19.70;53.00
67901;DHT22;54700;51.796;10.956;2023-06-19T02:09:40;19.70;53.40
67901;DHT22;54700;51.796;10.956;2023-06-19T02:12:08;19.60;54.00
67901;DHT22;54700;51.796;10.956;2023-06-19T02:14:37;19.50;54.90
67901;DHT22;54700;51.796;10.956;2023-06-19T02:17:04;19.30;55.70
67901;DHT22;54700;51.796;10.956;2023-06-19T02:19:30;19.30;56.10
67901;DHT22;54700;51.796;10.956;2023-06-19T02:22:20;19.20;56.80
67901;DHT22;54700;51.796;10.956;2023-06-19T02:24:47;19.10;57.70
67901;DHT22;54700;51.796;10.956;2023-06-19T02:27:23;19.00;58.20
67901;DHT22;54700;51.796;10.956;2023-06-19T02:29:51;19.00;58.50
67901;DHT22;54700;51.796;10.956;2023-06-19T02:32:18;19.00;59.20
67901;DHT22;54700;51.796;10.956;2023-06-19T02:34:45;19.00;59.30
67901;DHT22;54700;51.796;10.956;2023-06-19T02:37:18;18.90;59.70
67901;DHT22;54700;51.796;10.956;2023-06-19T02:39:46;18.90;59.80
67901;DHT22;54700;51.796;10.956;2023-06-19T02:42:13;18.90;60.00
67901;DHT22;54700;51.796;10.956;2023-06-19T02:44:41;18.90;60.00
67901;DHT22;54700;51.796;10.956;2023-06-19T02:47:08;18.90;59.90
67901;DHT22;54700;51.796;10.956;2023-06-19T02:49:35;19.00;60.80
67901;DHT22;54700;51.796;10.956;2023-06-19T02:52:02;19.00;60.60
67901;DHT22;54700;51.796;10.956;2023-06-19T02:54:29;19.00;60.50
67901;DHT22;54700;51.796;10.956;2023-06-19T02:56:57;19.10;60.30
67901;DHT22;54700;51.796;10.956;2023-06-19T02:59:25;19.10;60.60
67901;DHT22;54700;51.796;10.956;2023-06-19T03:01:52;19.20;60.90
67901;DHT22;54700;51.796;10.956;2023-06-19T03:04:19;19.20;60.10
67901;DHT22;54700;51.796;10.956;2023-06-19T03:06:45;19.30;58.50
67901;DHT22;54700;51.796;10.956;2023-06-19T03:09:12;19.40;58.10
67901;DHT22;54700;51.796;10.956;2023-06-19T03:11:39;19.40;57.70
67901;DHT22;54700;51.796;10.956;2023-06-19T03:14:08;19.50;57.20
67901;DHT22;54700;51.796;10.956;2023-06-19T03:16:35;19.60;58.30
67901;DHT22;54700;51.796;10.956;2023-06-19T03:19:02;19.60;59.10
67901;DHT22;54700;51.796;10.956;2023-06-19T03:21:29;19.70;59.70
67901;DHT22;54700;51.796;10.956;2023-06-19T03:23:57;19.70;58.20
67901;DHT22;54700;51.796;10.956;2023-06-19T03:26:26;19.70;58.90
67901;DHT22;54700;51.796;10.956;2023-06-19T03:28:53;19.70;56.90
67901;DHT22;54700;51.796;10.956;2023-06-19T03:31:21;19.70;56.10
67901;DHT22;54700;51.796;10.956;2023-06-19T03:33:48;19.80;55.80
67901;DHT22;54700;51.796;10.956;2023-06-19T03:36:15;19.80;55.40
67901;DHT22;54700;51.796;10.956;2023-06-19T03:38:42;19.90;54.90
67901;DHT22;54700;51.796;10.956;2023-06-19T03:41:09;20.00;53.80
67901;DHT22;54700;51.796;10.956;2023-06-19T03:43:37;20.00;53.20
67901;DHT22;54700;51.796;10.956;2023-06-19T03:46:04;20.10;52.50
67901;DHT22;54700;51.796;10.956;2023-06-19T03:48:32;20.20;51.70
67901;DHT22;54700;51.796;10.956;2023-06-19T03:51:00;20.30;51.40
67901;DHT22;54700;51.796;10.956;2023-06-19T03:53:27;20.40;51.00
67901;DHT22;54700;51.796;10.956;2023-06-19T03:55:54;20.50;50.70
67901;DHT22;54700;51.796;10.956;2023-06-19T03:58:21;20.50;50.70
67901;DHT22;54700;51.796;10.956;2023-06-19T04:00:57;20.50;52.70
67901;DHT22;54700;51.796;10.956;2023-06-19T04:03:24;20.40;53.60
67901;DHT22;54700;51.796;10.956;2023-06-19T04:05:58;20.30;54.40
67901;DHT22;54700;51.796;10.956;2023-06-19T04:08:25;20.10;54.90
67901;DHT22;54700;51.796;10.956;2023-06-19T04:10:52;20.00;55.70
67901;DHT22;54700;51.796;10.956;2023-06-19T04:13:19;19.90;55.80
67901;DHT22;54700;51.796;10.956;2023-06-19T04:15:46;19.90;56.00
67901;DHT22;54700;51.796;10.956;2023-06-19T04:18:13;19.90;54.90
67901;DHT22;54700;51.796;10.956;2023-06-19T04:20:40;20.00;54.10
67901;DHT22;54700;51.796;10.956;2023-06-19T04:23:08;20.00;53.90
67901;DHT22;54700;51.796;10.956;2023-06-19T04:25:36;20.10;55.10
67901;DHT22;54700;51.796;10.956;2023-06-19T04:28:03;20.10;56.40
67901;DHT22;54700;51.796;10.956;2023-06-19T04:30:30;20.10;57.50
67901;DHT22;54700;51.796;10.956;2023-06-19T04:32:57;19.90;59.10
67901;DHT22;54700;51.796;10.956;2023-06-19T04:35:25;19.70;60.00
67901;DHT22;54700;51.796;10.956;2023-06-19T04:37:52;19.60;59.80
67901;DHT22;54700;51.796;10.956;2023-06-19T04:40:21;19.60;59.10
67901;DHT22;54700;51.796;10.956;2023-06-19T04:42:50;19.70;60.20
67901;DHT22;54700;51.796;10.956;2023-06-19T04:45:19;19.70;61.90
67901;DHT22;54700;51.796;10.956;2023-06-19T04:47:53;19.70;63.20
67901;DHT22;54700;51.796;10.956;2023-06-19T04:50:28;19.70;66.30
67901;DHT22;54700;51.796;10.956;2023-06-19T04:52:58;19.60;67.50
67901;DHT22;54700;51.796;10.956;2023-06-19T04:55:27;19.60;69.60
67901;DHT22;54700;51.796;10.956;2023-06-19T04:57:57;19.50;75.20
67901;DHT22;54700;51.796;10.956;2023-06-19T05:00:58;19.50;75.70
67901;DHT22;54700;51.796;10.956;2023-06-19T05:03:16;19.40;75.30
67901;DHT22;54700;51.796;10.956;2023-06-19T05:05:46;19.30;77.30
67901;DHT22;54700;51.796;10.956;2023-06-19T05:08:14;19.30;73.80
67901;DHT22;54700;51.796;10.956;2023-06-19T05:10:43;19.30;75.60
67901;DHT22;54700;51.796;10.956;2023-06-19T05:13:13;19.30;75.20
67901;DHT22;54700;51.796;10.956;2023-06-19T05:15:40;19.40;74.10
67901;DHT22;54700;51.796;10.956;2023-06-19T05:18:15;19.40;74.90
67901;DHT22;54700;51.796;10.956;2023-06-19T05:20:45;19.40;73.30
67901;DHT22;54700;51.796;10.956;2023-06-19T05:23:12;19.50;71.60
67901;DHT22;54700;51.796;10.956;2023-06-19T05:25:43;19.60;68.30
67901;DHT22;54700;51.796;10.956;2023-06-19T05:28:13;19.70;71.40
67901;DHT22;54700;51.796;10.956;2023-06-19T05:30:40;19.70;75.50
67901;DHT22;54700;51.796;10.956;2023-06-19T05:33:07;19.60;78.50
67901;DHT22;54700;51.796;10.956;2023-06-19T05:35:35;19.50;83.10
67901;DHT22;54700;51.796;10.956;2023-06-19T05:38:02;19.40;84.70
67901;DHT22;54700;51.796;10.956;2023-06-19T05:40:44;19.30;89.60
67901;DHT22;54700;51.796;10.956;2023-06-19T05:43:11;19.10;90.50
67901;DHT22;54700;51.796;10.956;2023-06-19T05:45:38;19.00;89.40
67901;DHT22;54700;51.796;10.956;2023-06-19T05:48:07;19.00;89.10
67901;DHT22;54700;51.796;10.956;2023-06-19T05:50:34;19.00;90.50
67901;DHT22;54700;51.796;10.956;2023-06-19T05:53:02;19.00;88.20
67901;DHT22;54700;51.796;10.956;2023-06-19T05:55:34;19.00;87.80
67901;DHT22;54700;51.796;10.956;2023-06-19T05:58:09;19.10;84.20
67901;DHT22;54700;51.796;10.956;2023-06-19T06:00:36;19.20;78.30
67901;DHT22;54700;51.796;10.956;2023-06-19T06:03:06;19.30;79.90
67901;DHT22;54700;51.796;10.956;2023-06-19T06:05:33;19.30;83.60
67901;DHT22;54700;51.796;10.956;2023-06-19T06:08:01;19.40;86.00
67901;DHT22;54700;51.796;10.956;2023-06-19T06:10:29;19.30;88.20
67901;DHT22;54700;51.796;10.956;2023-06-19T06:12:56;19.30;90.00
67901;DHT22;54700;51.796;10.956;2023-06-19T06:15:30;19.30;90.70
67901;DHT22;54700;51.796;10.956;2023-06-19T06:17:57;19.20;91.30
67901;DHT22;54700;51.796;10.956;2023-06-19T06:20:26;19.20;90.90
67901;DHT22;54700;51.796;10.956;2023-06-19T06:22:53;19.20;90.10
67901;DHT22;54700;51.796;10.956;2023-06-19T06:25:22;19.20;89.50
67901;DHT22;54700;51.796;10.956;2023-06-19T06:27:49;19.20;90.40
67901;DHT22;54700;51.796;10.956;2023-06-19T06:30:19;19.20;89.90
67901;DHT22;54700;51.796;10.956;2023-06-19T06:32:47;19.20;88.10
67901;DHT22;54700;51.796;10.956;2023-06-19T06:35:28;19.30;90.10
67901;DHT22;54700;51.796;10.956;2023-06-19T06:37:58;19.40;90.20
67901;DHT22;54700;51.796;10.956;2023-06-19T06:40:25;19.40;91.70
67901;DHT22;54700;51.796;10.956;2023-06-19T06:43:08;19.40;93.30
67901;DHT22;54700;51.796;10.956;2023-06-19T06:46:41;19.40;94.20
67901;DHT22;54700;51.796;10.956;2023-06-19T06:52:31;19.20;88.30
67901;DHT22;54700;51.796;10.956;2023-06-19T06:55:00;19.20;92.30
67901;DHT22;54700;51.796;10.956;2023-06-19T06:57:33;19.20;93.90
67901;DHT22;54700;51.796;10.956;2023-06-19T07:00:05;19.10;94.30
67901;DHT22;54700;51.796;10.956;2023-06-19T07:02:35;19.10;93.40
67901;DHT22;54700;51.796;10.956;2023-06-19T07:05:15;19.10;93.20
67901;DHT22;54700;51.796;10.956;2023-06-19T07:07:44;19.20;93.50
67901;DHT22;54700;51.796;10.956;2023-06-19T07:10:11;19.20;93.30
67901;DHT22;54700;51.796;10.956;2023-06-19T07:12:45;19.30;93.60
67901;DHT22;54700;51.796;10.956;2023-06-19T07:15:15;19.40;92.40
67901;DHT22;54700;51.796;10.956;2023-06-19T07:17:45;19.50;91.90
67901;DHT22;54700;51.796;10.956;2023-06-19T07:20:14;19.60;91.50
67901;DHT22;54700;51.796;10.956;2023-06-19T07:25:35;19.90;89.90
67901;DHT22;54700;51.796;10.956;2023-06-19T07:28:04;20.00;84.60
67901;DHT22;54700;51.796;10.956;2023-06-19T07:30:32;20.10;86.10
67901;DHT22;54700;51.796;10.956;2023-06-19T07:33:04;20.20;85.30
67901;DHT22;54700;51.796;10.956;2023-06-19T07:35:35;20.30;85.00
67901;DHT22;54700;51.796;10.956;2023-06-19T07:38:05;20.40;87.20
67901;DHT22;54700;51.796;10.956;2023-06-19T07:44:15;20.30;89.40
67901;DHT22;54700;51.796;10.956;2023-06-19T07:46:55;20.40;90.50
67901;DHT22;54700;51.796;10.956;2023-06-19T07:49:29;20.40;90.10
67901;DHT22;54700;51.796;10.956;2023-06-19T07:54:56;20.60;86.50
67901;DHT22;54700;51.796;10.956;2023-06-19T07:57:28;20.90;84.90
67901;DHT22;54700;51.796;10.956;2023-06-19T08:00:14;21.10;81.60
67901;DHT22;54700;51.796;10.956;2023-06-19T08:02:52;21.40;78.30
67901;DHT22;54700;51.796;10.956;2023-06-19T08:05:20;21.60;72.80
67901;DHT22;54700;51.796;10.956;2023-06-19T08:07:54;21.90;71.20
67901;DHT22;54700;51.796;10.956;2023-06-19T08:10:39;22.10;67.90
67901;DHT22;54700;51.796;10.956;2023-06-19T08:15:49;22.50;62.40
67901;DHT22;54700;51.796;10.956;2023-06-19T08:18:32;22.60;62.40
67901;DHT22;54700;51.796;10.956;2023-06-19T08:24:04;23.10;60.60
67901;DHT22;54700;51.796;10.956;2023-06-19T08:26:44;23.30;59.90
67901;DHT22;54700;51.796;10.956;2023-06-19T08:29:19;23.50;58.10
67901;DHT22;54700;51.796;10.956;2023-06-19T08:31:54;23.70;57.40
67901;DHT22;54700;51.796;10.956;2023-06-19T08:34:37;23.80;58.00
67901;DHT22;54700;51.796;10.956;2023-06-19T08:37:05;24.00;57.70
67901;DHT22;54700;51.796;10.956;2023-06-19T08:39:33;24.10;57.30
67901;DHT22;54700;51.796;10.956;2023-06-19T08:45:03;24.40;57.80
67901;DHT22;54700;51.796;10.956;2023-06-19T08:47:45;24.50;57.60
67901;DHT22;54700;51.796;10.956;2023-06-19T08:50:20;24.70;55.70
67901;DHT22;54700;51.796;10.956;2023-06-19T08:55:48;24.90;54.80
67901;DHT22;54700;51.796;10.956;2023-06-19T08:58:56;25.00;53.40
67901;DHT22;54700;51.796;10.956;2023-06-19T09:01:48;25.20;53.00
67901;DHT22;54700;51.796;10.956;2023-06-19T09:07:12;25.30;49.40
67901;DHT22;54700;51.796;10.956;2023-06-19T09:09:52;25.30;49.30
67901;DHT22;54700;51.796;10.956;2023-06-19T09:12:55;25.20;50.00
67901;DHT22;54700;51.796;10.956;2023-06-19T09:19:22;25.20;50.50
67901;DHT22;54700;51.796;10.956;2023-06-19T09:22:06;25.20;50.30
67901;DHT22;54700;51.796;10.956;2023-06-19T09:24:50;25.20;49.40
67901;DHT22;54700;51.796;10.956;2023-06-19T09:27:40;25.30;48.40
67901;DHT22;54700;51.796;10.956;2023-06-19T09:30:29;25.50;46.80
67901;DHT22;54700;51.796;10.956;2023-06-19T09:33:16;25.50;45.60
67901;DHT22;54700;51.796;10.956;2023-06-19T09:39:09;25.70;43.00
67901;DHT22;54700;51.796;10.956;2023-06-19T09:41:40;25.70;43.70
67901;DHT22;54700;51.796;10.956;2023-06-19T09:44:24;25.70;43.40
67901;DHT22;54700;51.796;10.956;2023-06-19T09:47:02;25.80;43.00
67901;DHT22;54700;51.796;10.956;2023-06-19T09:50:13;25.80;42.90
67901;DHT22;54700;51.796;10.956;2023-06-19T09:52:43;26.00;42.60
67901;DHT22;54700;51.796;10.956;2023-06-19T09:55:12;26.10;42.00
67901;DHT22;54700;51.796;10.956;2023-06-19T09:57:41;26.20;42.10
67901;DHT22;54700;51.796;10.956;2023-06-19T10:00:14;26.30;41.70
67901;DHT22;54700;51.796;10.956;2023-06-19T10:02:48;26.40;41.30
67901;DHT22;54700;51.796;10.956;2023-06-19T10:05:35;26.50;41.30
67901;DHT22;54700;51.796;10.956;2023-06-19T10:08:26;26.60;40.80
67901;DHT22;54700;51.796;10.956;2023-06-19T10:11:06;26.60;41.10
67901;DHT22;54700;51.796;10.956;2023-06-19T10:14:17;26.80;41.10
67901;DHT22;54700;51.796;10.956;2023-06-19T10:17:07;27.00;40.40
67901;DHT22;54700;51.796;10.956;2023-06-19T10:19:51;27.10;39.80
67901;DHT22;54700;51.796;10.956;2023-06-19T10:22:29;27.30;40.70
67901;DHT22;54700;51.796;10.956;2023-06-19T10:25:10;27.40;40.80
67901;DHT22;54700;51.796;10.956;2023-06-19T10:27:48;27.50;40.90
67901;DHT22;54700;51.796;10.956;2023-06-19T10:30:27;27.70;40.80
67901;DHT22;54700;51.796;10.956;2023-06-19T10:33:07;27.90;40.80
67901;DHT22;54700;51.796;10.956;2023-06-19T10:35:40;28.10;39.40
67901;DHT22;54700;51.796;10.956;2023-06-19T10:38:10;28.10;39.70
67901;DHT22;54700;51.796;10.956;2023-06-19T10:40:53;28.20;39.30
67901;DHT22;54700;51.796;10.956;2023-06-19T10:43:25;28.20;40.10
67901;DHT22;54700;51.796;10.956;2023-06-19T10:46:02;28.20;40.10
67901;DHT22;54700;51.796;10.956;2023-06-19T10:48:33;28.20;39.70
67901;DHT22;54700;51.796;10.956;2023-06-19T10:51:25;28.10;39.90
67901;DHT22;54700;51.796;10.956;2023-06-19T10:54:01;28.10;40.10
67901;DHT22;54700;51.796;10.956;2023-06-19T10:56:46;28.10;39.70
67901;DHT22;54700;51.796;10.956;2023-06-19T10:59:17;28.20;39.90
67901;DHT22;54700;51.796;10.956;2023-06-19T11:01:52;28.30;39.50
67901;DHT22;54700;51.796;10.956;2023-06-19T11:04:19;28.40;39.60
67901;DHT22;54700;51.796;10.956;2023-06-19T11:06:50;28.60;39.10
67901;DHT22;54700;51.796;10.956;2023-06-19T11:09:17;28.70;38.60
67901;DHT22;54700;51.796;10.956;2023-06-19T11:11:47;28.80;37.80
67901;DHT22;54700;51.796;10.956;2023-06-19T11:14:19;28.70;37.70
67901;DHT22;54700;51.796;10.956;2023-06-19T11:16:48;28.60;38.30
67901;DHT22;54700;51.796;10.956;2023-06-19T11:19:16;28.60;38.70
67901;DHT22;54700;51.796;10.956;2023-06-19T11:21:47;28.70;39.00
67901;DHT22;54700;51.796;10.956;2023-06-19T11:24:18;28.80;39.20
67901;DHT22;54700;51.796;10.956;2023-06-19T11:27:03;28.70;37.50
67901;DHT22;54700;51.796;10.956;2023-06-19T11:29:33;28.30;36.50
67901;DHT22;54700;51.796;10.956;2023-06-19T11:32:13;28.10;37.00
67901;DHT22;54700;51.796;10.956;2023-06-19T11:34:41;28.00;37.30
67901;DHT22;54700;51.796;10.956;2023-06-19T11:37:14;27.90;37.50
67901;DHT22;54700;51.796;10.956;2023-06-19T11:39:49;27.90;38.60
67901;DHT22;54700;51.796;10.956;2023-06-19T11:42:54;28.00;38.70
67901;DHT22;54700;51.796;10.956;2023-06-19T11:45:59;27.90;37.50
67901;DHT22;54700;51.796;10.956;2023-06-19T11:48:38;27.90;37.90
67901;DHT22;54700;51.796;10.956;2023-06-19T11:51:06;28.00;38.50
67901;DHT22;54700;51.796;10.956;2023-06-19T11:53:39;28.10;38.20
67901;DHT22;54700;51.796;10.956;2023-06-19T11:56:06;28.10;37.20
67901;DHT22;54700;51.796;10.956;2023-06-19T11:58:38;28.10;37.90
67901;DHT22;54700;51.796;10.956;2023-06-19T12:01:06;28.00;37.70
67901;DHT22;54700;51.796;10.956;2023-06-19T12:03:39;28.00;38.20
67901;DHT22;54700;51.796;10.956;2023-06-19T12:06:08;28.00;38.50
67901;DHT22;54700;51.796;10.956;2023-06-19T12:08:36;28.10;38.00
67901;DHT22;54700;51.796;10.956;2023-06-19T12:11:03;28.00;38.50
67901;DHT22;54700;51.796;10.956;2023-06-19T12:13:40;28.00;39.10
67901;DHT22;54700;51.796;10.956;2023-06-19T12:16:13;27.90;39.50
67901;DHT22;54700;51.796;10.956;2023-06-19T12:18:44;27.90;39.90
67901;DHT22;54700;51.796;10.956;2023-06-19T12:21:17;27.80;39.70
67901;DHT22;54700;51.796;10.956;2023-06-19T12:23:47;27.60;40.30
67901;DHT22;54700;51.796;10.956;2023-06-19T12:26:22;27.60;40.90
67901;DHT22;54700;51.796;10.956;2023-06-19T12:28:53;27.50;41.50
67901;DHT22;54700;51.796;10.956;2023-06-19T12:31:24;27.40;41.60
67901;DHT22;54700;51.796;10.956;2023-06-19T12:33:52;27.40;41.70
67901;DHT22;54700;51.796;10.956;2023-06-19T12:36:19;27.40;41.90
67901;DHT22;54700;51.796;10.956;2023-06-19T12:38:48;27.50;42.10
67901;DHT22;54700;51.796;10.956;2023-06-19T12:41:19;27.60;42.50
67901;DHT22;54700;51.796;10.956;2023-06-19T12:43:46;27.70;41.90
67901;DHT22;54700;51.796;10.956;2023-06-19T12:46:21;27.60;42.30
67901;DHT22;54700;51.796;10.956;2023-06-19T12:48:50;27.40;42.70
67901;DHT22;54700;51.796;10.956;2023-06-19T12:51:18;27.50;42.90
67901;DHT22;54700;51.796;10.956;2023-06-19T12:53:47;27.50;42.70
67901;DHT22;54700;51.796;10.956;2023-06-19T12:56:16;27.50;42.70
67901;DHT22;54700;51.796;10.956;2023-06-19T12:58:49;27.60;42.60
67901;DHT22;54700;51.796;10.956;2023-06-19T13:01:23;27.70;42.70
67901;DHT22;54700;51.796;10.956;2023-06-19T13:04:02;27.80;42.30
67901;DHT22;54700;51.796;10.956;2023-06-19T13:06:37;27.90;42.10
67901;DHT22;54700;51.796;10.956;2023-06-19T13:09:15;28.10;42.40
67901;DHT22;54700;51.796;10.956;2023-06-19T13:11:45;28.20;42.00
67901;DHT22;54700;51.796;10.956;2023-06-19T13:14:15;28.10;40.90
67901;DHT22;54700;51.796;10.956;2023-06-19T13:16:48;28.10;41.30
67901;DHT22;54700;51.796;10.956;2023-06-19T13:19:18;28.10;41.30
67901;DHT22;54700;51.796;10.956;2023-06-19T13:21:45;28.10;41.30
67901;DHT22;54700;51.796;10.956;2023-06-19T13:24:13;28.10;41.30
67901;DHT22;54700;51.796;10.956;2023-06-19T13:26:40;28.30;41.40
67901;DHT22;54700;51.796;10.956;2023-06-19T13:29:11;28.50;41.10
67901;DHT22;54700;51.796;10.956;2023-06-19T13:31:47;28.50;40.70
67901;DHT22;54700;51.796;10.956;2023-06-19T13:34:22;28.50;40.80
67901;DHT22;54700;51.796;10.956;2023-06-19T13:36:52;28.40;40.70
67901;DHT22;54700;51.796;10.956;2023-06-19T13:39:20;28.30;41.40
67901;DHT22;54700;51.796;10.956;2023-06-19T13:41:51;28.20;41.70
67901;DHT22;54700;51.796;10.956;2023-06-19T13:44:28;28.30;41.70
67901;DHT22;54700;51.796;10.956;2023-06-19T13:47:08;28.20;41.70
67901;DHT22;54700;51.796;10.956;2023-06-19T13:49:40;28.10;41.80
67901;DHT22;54700;51.796;10.956;2023-06-19T13:52:18;28.00;42.30
67901;DHT22;54700;51.796;10.956;2023-06-19T13:54:54;27.80;42.90
67901;DHT22;54700;51.796;10.956;2023-06-19T13:57:30;27.80;43.00
67901;DHT22;54700;51.796;10.956;2023-06-19T14:00:30;27.80;42.90
67901;DHT22;54700;51.796;10.956;2023-06-19T14:03:02;27.80;43.30
67901;DHT22;54700;51.796;10.956;2023-06-19T14:05:33;27.80;42.60
67901;DHT22;54700;51.796;10.956;2023-06-19T14:08:10;27.80;43.00
67901;DHT22;54700;51.796;10.956;2023-06-19T14:10:44;28.00;43.20
67901;DHT22;54700;51.796;10.956;2023-06-19T14:13:25;28.10;43.10
67901;DHT22;54700;51.796;10.956;2023-06-19T14:15:53;28.10;42.90
67901;DHT22;54700;51.796;10.956;2023-06-19T14:18:24;28.10;42.80
67901;DHT22;54700;51.796;10.956;2023-06-19T14:20:56;28.20;42.30
67901;DHT22;54700;51.796;10.956;2023-06-19T14:23:26;28.20;42.30
67901;DHT22;54700;51.796;10.956;2023-06-19T14:26:10;28.10;42.60
67901;DHT22;54700;51.796;10.956;2023-06-19T14:28:41;28.10;42.70
67901;DHT22;54700;51.796;10.956;2023-06-19T14:31:19;28.10;42.90
67901;DHT22;54700;51.796;10.956;2023-06-19T14:33:53;28.10;43.30
67901;DHT22;54700;51.796;10.956;2023-06-19T14:36:24;28.10;42.80
67901;DHT22;54700;51.796;10.956;2023-06-19T14:38:57;28.00;43.20
67901;DHT22;54700;51.796;10.956;2023-06-19T14:41:27;27.90;43.00
67901;DHT22;54700;51.796;10.956;2023-06-19T14:43:56;27.90;43.00
67901;DHT22;54700;51.796;10.956;2023-06-19T14:46:26;27.80;43.50
67901;DHT22;54700;51.796;10.956;2023-06-19T14:49:05;27.90;43.50
67901;DHT22;54700;51.796;10.956;2023-06-19T14:51:37;27.90;43.60
67901;DHT22;54700;51.796;10.956;2023-06-19T14:54:13;27.90;44.50
67901;DHT22;54700;51.796;10.956;2023-06-19T14:56:45;27.80;44.80
67901;DHT22;54700;51.796;10.956;2023-06-19T14:59:13;27.80;44.90
67901;DHT22;54700;51.796;10.956;2023-06-19T15:01:49;27.70;44.70
67901;DHT22;54700;51.796;10.956;2023-06-19T15:04:36;27.80;45.20
67901;DHT22;54700;51.796;10.956;2023-06-19T15:07:12;27.70;44.90
67901;DHT22;54700;51.796;10.956;2023-06-19T15:09:59;27.80;45.30
67901;DHT22;54700;51.796;10.956;2023-06-19T15:12:42;27.80;45.20
67901;DHT22;54700;51.796;10.956;2023-06-19T15:15:20;27.70;44.80
67901;DHT22;54700;51.796;10.956;2023-06-19T15:17:55;27.80;45.00
67901;DHT22;54700;51.796;10.956;2023-06-19T15:20:25;27.90;45.00
67901;DHT22;54700;51.796;10.956;2023-06-19T15:22:55;28.00;45.10
67901;DHT22;54700;51.796;10.956;2023-06-19T15:25:22;28.10;44.70
67901;DHT22;54700;51.796;10.956;2023-06-19T15:27:50;28.10;45.00
67901;DHT22;54700;51.796;10.956;2023-06-19T15:30:17;28.10;44.70
67901;DHT22;54700;51.796;10.956;2023-06-19T15:32:50;28.10;45.10
67901;DHT22;54700;51.796;10.956;2023-06-19T15:35:21;28.00;45.30
67901;DHT22;54700;51.796;10.956;2023-06-19T15:37:53;27.80;45.70
67901;DHT22;54700;51.796;10.956;2023-06-19T15:40:25;27.70;46.00
67901;DHT22;54700;51.796;10.956;2023-06-19T15:42:52;27.50;46.70
67901;DHT22;54700;51.796;10.956;2023-06-19T15:45:20;27.50;47.00
67901;DHT22;54700;51.796;10.956;2023-06-19T15:47:50;27.50;47.40
67901;DHT22;54700;51.796;10.956;2023-06-19T15:50:20;27.50;47.70
67901;DHT22;54700;51.796;10.956;2023-06-19T15:52:47;27.50;47.80
67901;DHT22;54700;51.796;10.956;2023-06-19T15:55:16;27.40;48.00
67901;DHT22;54700;51.796;10.956;2023-06-19T15:57:43;27.30;48.50
67901;DHT22;54700;51.796;10.956;2023-06-19T16:00:11;27.30;48.60
67901;DHT22;54700;51.796;10.956;2023-06-19T16:02:40;27.20;48.90
67901;DHT22;54700;51.796;10.956;2023-06-19T16:05:11;27.10;49.50
67901;DHT22;54700;51.796;10.956;2023-06-19T16:07:39;27.00;50.10
67901;DHT22;54700;51.796;10.956;2023-06-19T16:10:07;27.00;50.70
67901;DHT22;54700;51.796;10.956;2023-06-19T16:12:36;26.90;51.00
67901;DHT22;54700;51.796;10.956;2023-06-19T16:15:07;26.90;51.30
67901;DHT22;54700;51.796;10.956;2023-06-19T16:20:25;27.00;51.30
67901;DHT22;54700;51.796;10.956;2023-06-19T16:23:00;27.10;51.00